Time;durP1;ratioP1;P1;durP2;ratioP2;P2;SDS_P1;SDS_P2;PMS_P1;PMS_P2;Temp;Humidity;BMP_temperature;BMP_pressure;BME280_temperature;BME280_humidity;BME280_pressure;Samples;Min_cycle;Max_cycle;Signal;HPM_P1;HPM_P2
2023/03/19 00:01:05;;;;;;;16.20;10.23;;;;;;;9.98;100.00;99773.63;5048283;28;20242;-65
2023/03/19 00:03:30;;;;;;;15.63;10.40;;;;;;;10.08;100.00;99768.78;5073543;28;20189;-64
2023/03/19 00:05:55;;;;;;;12.33;8.73;;;;;;;10.05;100.00;99776.66;5071961;28;20189;-62
2023/03/19 00:08:21;;;;;;;13.87;8.90;;;;;;;10.02;100.00;99772.50;5067999;28;20773;-77
2023/03/19 00:10:46;;;;;;;10.57;8.63;;;;;;;9.94;100.00;99782.44;5054703;28;20224;-62
2023/03/19 00:13:12;;;;;;;13.53;9.83;;;;;;;10.02;100.00;99775.94;5069431;28;20254;-61
2023/03/19 00:15:37;;;;;;;14.30;10.83;;;;;;;9.98;100.00;99776.19;5061810;28;20577;-62
2023/03/19 00:18:04;;;;;;;12.37;9.50;;;;;;;10.04;100.00;99775.03;5068491;28;20191;-61
2023/03/19 00:20:29;;;;;;;12.63;8.80;;;;;;;10.12;100.00;99783.09;5058704;28;20284;-62
2023/03/19 00:22:55;;;;;;;14.10;9.37;;;;;;;10.13;100.00;99770.19;5064934;28;20185;-62
2023/03/19 00:25:21;;;;;;;12.63;8.63;;;;;;;10.18;100.00;99770.72;5066143;28;20184;-63
2023/03/19 00:27:46;;;;;;;13.13;8.00;;;;;;;10.02;100.00;99770.78;5061964;28;20512;-63
2023/03/19 00:30:13;;;;;;;13.17;8.40;;;;;;;10.07;100.00;99769.69;5034870;28;20195;-60
2023/03/19 00:32:39;;;;;;;12.40;7.47;;;;;;;9.95;100.00;99782.34;5072386;28;20185;-63
2023/03/19 00:35:05;;;;;;;11.37;7.33;;;;;;;9.87;100.00;99769.09;5062884;28;20664;-62
2023/03/19 00:37:31;;;;;;;11.67;7.07;;;;;;;9.96;100.00;99780.56;5064075;28;20193;-63
2023/03/19 00:39:56;;;;;;;10.10;8.00;;;;;;;9.76;100.00;99772.28;5063912;28;20708;-61
2023/03/19 00:42:22;;;;;;;13.03;7.93;;;;;;;9.91;100.00;99785.16;5043009;28;20232;-62
2023/03/19 00:44:47;;;;;;;10.00;7.03;;;;;;;9.87;100.00;99778.53;5066641;28;20192;-61
2023/03/19 00:47:12;;;;;;;9.53;7.17;;;;;;;9.98;100.00;99783.91;5055197;28;20185;-60
2023/03/19 00:49:37;;;;;;;9.67;7.43;;;;;;;9.96;100.00;99780.56;5067651;28;20187;-59
2023/03/19 00:52:03;;;;;;;9.30;6.40;;;;;;;9.93;100.00;99785.91;5073007;28;20227;-62
2023/03/19 00:54:28;;;;;;;10.07;6.97;;;;;;;9.84;100.00;99784.69;5064588;28;20258;-61
2023/03/19 00:56:53;;;;;;;11.37;7.30;;;;;;;9.72;100.00;99782.81;5065223;28;20592;-63
2023/03/19 00:59:19;;;;;;;11.03;7.23;;;;;;;9.74;100.00;99786.13;5067190;28;20176;-62
2023/03/19 01:01:44;;;;;;;9.33;7.77;;;;;;;9.77;100.00;99786.75;5072054;28;20220;-62
2023/03/19 01:04:10;;;;;;;11.50;7.57;;;;;;;9.76;100.00;99779.16;5069248;28;20666;-63
2023/03/19 01:06:35;;;;;;;12.43;7.90;;;;;;;9.83;100.00;99777.88;5066958;28;20176;-61
2023/03/19 01:09:01;;;;;;;15.20;8.53;;;;;;;9.79;100.00;99778.97;5067139;28;20267;-60
2023/03/19 01:11:26;;;;;;;11.23;7.93;;;;;;;9.75;100.00;99780.91;5066186;28;20219;-62
2023/03/19 01:13:52;;;;;;;13.87;9.20;;;;;;;9.68;100.00;99777.81;5065417;28;20188;-60
2023/03/19 01:16:17;;;;;;;11.77;8.47;;;;;;;9.72;100.00;99778.47;5061020;28;20196;-61
2023/03/19 01:18:43;;;;;;;15.17;8.63;;;;;;;9.71;100.00;99781.97;5071939;28;20622;-62
2023/03/19 01:21:09;;;;;;;12.03;7.97;;;;;;;9.75;100.00;99783.47;5064741;28;20219;-61
2023/03/19 01:23:35;;;;;;;12.80;8.87;;;;;;;9.53;100.00;99774.38;5060958;28;20193;-61
2023/03/19 01:26:00;;;;;;;13.30;9.70;;;;;;;9.53;100.00;99776.13;5073512;28;20299;-61
2023/03/19 01:28:25;;;;;;;11.60;8.83;;;;;;;9.44;100.00;99774.91;5073072;28;20189;-61
2023/03/19 01:30:51;;;;;;;10.90;8.07;;;;;;;9.56;100.00;99781.06;5069550;28;20228;-61
2023/03/19 01:33:18;;;;;;;13.17;8.63;;;;;;;9.62;100.00;99777.34;5081522;28;20180;-62
2023/03/19 01:35:46;;;;;;;13.43;9.47;;;;;;;9.73;100.00;99772.44;5071617;28;20188;-61
2023/03/19 01:38:12;;;;;;;11.47;8.87;;;;;;;9.80;100.00;99767.81;5073481;28;20176;-61
2023/03/19 01:40:43;;;;;;;9.77;7.83;;;;;;;9.80;100.00;99765.22;5067394;28;20230;-62
2023/03/19 01:43:14;;;;;;;12.90;8.83;;;;;;;9.81;100.00;99767.72;5058090;28;20904;-62
2023/03/19 01:45:41;;;;;;;12.73;8.00;;;;;;;9.77;100.00;99766.22;5073044;28;20192;-64
2023/03/19 01:48:17;;;;;;;12.67;8.23;;;;;;;9.75;100.00;99772.34;5071379;28;20180;-62
2023/03/19 01:50:44;;;;;;;11.40;8.53;;;;;;;9.84;100.00;99774.41;5064265;28;20254;-61
2023/03/19 01:53:12;;;;;;;12.17;8.43;;;;;;;9.75;100.00;99774.91;5071179;28;20181;-62
2023/03/19 01:55:39;;;;;;;11.70;8.90;;;;;;;9.77;100.00;99781.63;5071276;28;20227;-62
2023/03/19 01:58:06;;;;;;;12.00;8.17;;;;;;;9.85;100.00;99784.59;5071553;28;20200;-62
2023/03/19 02:00:34;;;;;;;11.40;8.57;;;;;;;9.86;100.00;99788.00;5065767;28;20224;-61
2023/03/19 02:03:01;;;;;;;12.13;8.17;;;;;;;9.90;100.00;99792.03;5071016;28;20271;-62
2023/03/19 02:05:27;;;;;;;12.03;8.40;;;;;;;9.91;100.00;99793.72;5072561;28;20189;-62
2023/03/19 02:07:57;;;;;;;13.07;7.43;;;;;;;9.94;100.00;99795.28;5069736;28;20227;-62
2023/03/19 02:10:22;;;;;;;14.10;9.20;;;;;;;9.79;100.00;99786.69;5063287;28;20213;-61
2023/03/19 02:12:48;;;;;;;11.53;7.57;;;;;;;9.77;100.00;99793.66;5084948;28;20674;-61
2023/03/19 02:15:14;;;;;;;12.33;7.10;;;;;;;9.81;100.00;99792.56;5069411;28;20203;-61
2023/03/19 02:17:41;;;;;;;11.67;8.47;;;;;;;9.85;100.00;99799.19;5063356;28;20181;-63
2023/03/19 02:20:16;;;;;;;15.13;8.23;;;;;;;9.81;100.00;99801.09;5061015;28;20176;-62
2023/03/19 02:23:20;;;;;;;8.23;6.87;;;;;;;9.67;100.00;99795.91;5074418;28;20259;-62
2023/03/19 02:25:45;;;;;;;12.13;6.57;;;;;;;9.62;100.00;99793.56;5073551;28;20177;-62
2023/03/19 02:28:14;;;;;;;11.40;8.47;;;;;;;9.35;100.00;99790.78;5068557;28;20180;-61
2023/03/19 02:30:41;;;;;;;14.07;9.60;;;;;;;9.24;100.00;99786.25;5066638;28;20247;-63
2023/03/19 02:33:12;;;;;;;13.10;8.90;;;;;;;9.24;100.00;99783.69;5070057;28;20191;-62
2023/03/19 02:35:37;;;;;;;14.03;9.30;;;;;;;9.42;100.00;99786.16;5070590;28;20207;-62
2023/03/19 02:38:04;;;;;;;13.83;9.20;;;;;;;9.34;100.00;99782.28;5071794;28;20256;-62
2023/03/19 02:40:35;;;;;;;13.60;9.00;;;;;;;9.41;100.00;99784.50;5063532;28;20600;-63
2023/03/19 02:43:01;;;;;;;11.13;8.87;;;;;;;9.35;100.00;99781.38;5056721;28;20276;-62
2023/03/19 02:45:28;;;;;;;11.93;9.67;;;;;;;9.26;100.00;99784.41;5071918;28;20176;-60
2023/03/19 02:47:54;;;;;;;11.70;8.63;;;;;;;9.36;100.00;99788.16;5070416;28;20196;-61
2023/03/19 02:50:19;;;;;;;11.90;8.80;;;;;;;9.33;100.00;99788.31;5062508;28;20600;-62
2023/03/19 02:52:45;;;;;;;12.57;9.03;;;;;;;9.32;100.00;99785.84;5084180;28;20180;-62
2023/03/19 02:55:10;;;;;;;11.00;8.03;;;;;;;9.32;100.00;99794.34;5071913;28;20204;-61
2023/03/19 02:57:35;;;;;;;8.70;7.17;;;;;;;9.32;100.00;99789.22;5071800;28;20184;-61
2023/03/19 03:00:01;;;;;;;12.60;7.23;;;;;;;9.27;100.00;99793.78;5070505;28;20181;-60
2023/03/19 03:02:26;;;;;;;8.87;7.03;;;;;;;9.28;100.00;99790.31;5059299;28;20587;-62
2023/03/19 03:04:52;;;;;;;8.53;6.33;;;;;;;9.04;100.00;99787.31;5070208;28;20184;-61
2023/03/19 03:07:17;;;;;;;9.30;6.87;;;;;;;9.08;100.00;99791.38;5071129;28;21188;-61
2023/03/19 03:09:42;;;;;;;9.20;6.63;;;;;;;9.04;100.00;99797.56;5071990;28;20537;-61
2023/03/19 03:12:08;;;;;;;11.20;6.73;;;;;;;9.12;100.00;99786.91;5076337;28;20220;-61
2023/03/19 03:14:34;;;;;;;9.10;6.67;;;;;;;9.13;100.00;99785.97;5071332;28;20224;-61
2023/03/19 03:16:59;;;;;;;11.67;7.07;;;;;;;9.04;100.00;99789.88;5069993;28;20180;-61
2023/03/19 03:19:24;;;;;;;10.47;6.70;;;;;;;9.10;100.00;99781.84;5071656;28;20536;-63
2023/03/19 03:21:50;;;;;;;8.87;6.70;;;;;;;9.13;100.00;99781.69;5074794;28;20223;-62
2023/03/19 03:24:15;;;;;;;9.50;6.80;;;;;;;9.00;100.00;99788.38;5072663;28;20577;-62
2023/03/19 03:26:40;;;;;;;7.83;6.50;;;;;;;9.02;100.00;99791.72;5071140;28;20192;-61
2023/03/19 03:29:06;;;;;;;11.57;6.97;;;;;;;9.08;100.00;99786.25;5071467;28;20179;-61
2023/03/19 03:31:32;;;;;;;10.43;6.97;;;;;;;9.08;100.00;99787.97;5062580;28;20208;-61
2023/03/19 03:33:57;;;;;;;8.60;6.30;;;;;;;9.06;100.00;99790.63;5069501;28;20195;-61
2023/03/19 03:36:23;;;;;;;7.93;6.70;;;;;;;8.95;100.00;99793.75;5072111;28;20205;-61
2023/03/19 03:38:49;;;;;;;9.90;7.33;;;;;;;8.91;100.00;99799.97;5075713;28;20615;-61
2023/03/19 03:41:14;;;;;;;10.17;7.53;;;;;;;8.83;100.00;99804.66;5066781;28;20612;-63
2023/03/19 03:43:39;;;;;;;13.40;7.30;;;;;;;8.75;100.00;99806.81;5081237;28;20301;-63
2023/03/19 03:46:06;;;;;;;15.60;7.80;;;;;;;8.59;100.00;99801.63;5075444;28;20184;-62
2023/03/19 03:48:31;;;;;;;8.80;6.77;;;;;;;8.48;100.00;99808.13;5065460;28;20227;-61
2023/03/19 03:50:57;;;;;;;9.40;7.33;;;;;;;8.54;100.00;99817.25;5058518;28;20219;-62
2023/03/19 03:53:22;;;;;;;9.60;7.37;;;;;;;8.61;100.00;99810.06;5083131;28;20268;-62
2023/03/19 03:55:47;;;;;;;10.77;7.70;;;;;;;8.61;100.00;99805.78;5074977;28;20196;-61
2023/03/19 03:58:13;;;;;;;11.13;7.97;;;;;;;8.64;100.00;99805.59;5075246;28;20192;-62
2023/03/19 04:00:38;;;;;;;9.63;7.43;;;;;;;8.57;100.00;99817.09;5058794;28;20674;-62
2023/03/19 04:03:04;;;;;;;10.63;8.10;;;;;;;8.48;100.00;99800.41;5085257;28;20285;-62
2023/03/19 04:05:29;;;;;;;11.37;7.23;;;;;;;8.37;100.00;99813.78;5074656;28;20237;-62
2023/03/19 04:07:55;;;;;;;14.63;8.27;;;;;;;8.21;100.00;99821.38;5074728;28;20667;-62
2023/03/19 04:10:20;;;;;;;10.37;7.57;;;;;;;8.14;100.00;99819.19;5066722;28;20169;-62
2023/03/19 04:12:45;;;;;;;9.67;8.07;;;;;;;8.06;100.00;99822.13;5087501;28;20687;-62
2023/03/19 04:15:11;;;;;;;9.83;7.13;;;;;;;8.15;100.00;99825.97;5065454;28;20200;-62
2023/03/19 04:17:37;;;;;;;8.77;7.33;;;;;;;8.14;100.00;99832.84;5088956;28;20181;-62
2023/03/19 04:20:03;;;;;;;14.80;8.33;;;;;;;8.07;100.00;99836.59;5070309;28;20177;-63
2023/03/19 04:22:29;;;;;;;9.47;8.40;;;;;;;7.90;100.00;99828.00;5075530;28;20197;-63
2023/03/19 04:24:54;;;;;;;10.40;8.27;;;;;;;7.93;100.00;99831.31;5060819;28;20224;-62
2023/03/19 04:27:19;;;;;;;9.93;8.40;;;;;;;7.98;100.00;99839.59;5074965;28;20195;-64
2023/03/19 04:29:45;;;;;;;11.17;8.57;;;;;;;8.01;100.00;99844.56;5074381;28;20256;-63
2023/03/19 04:32:10;;;;;;;8.83;7.83;;;;;;;8.01;100.00;99853.09;5058370;28;20223;-64
2023/03/19 04:34:36;;;;;;;9.37;7.90;;;;;;;8.04;100.00;99849.56;5062595;28;20732;-62
2023/03/19 04:37:02;;;;;;;9.43;7.90;;;;;;;8.02;100.00;99846.22;5060510;28;20219;-62
2023/03/19 04:39:27;;;;;;;12.10;8.57;;;;;;;8.04;100.00;99854.69;5072906;28;20177;-62
2023/03/19 04:41:52;;;;;;;8.80;7.93;;;;;;;8.02;100.00;99841.13;5058001;28;20228;-63
2023/03/19 04:44:18;;;;;;;11.23;8.57;;;;;;;8.01;100.00;99837.72;5069718;28;20219;-63
2023/03/19 04:46:44;;;;;;;9.47;8.47;;;;;;;7.98;100.00;99842.16;5073649;28;20260;-63
2023/03/19 04:49:10;;;;;;;9.90;7.77;;;;;;;7.92;100.00;99845.84;5072641;28;20577;-64
2023/03/19 04:51:35;;;;;;;11.93;9.20;;;;;;;7.85;100.00;99849.59;5075863;28;20381;-63
2023/03/19 04:54:01;;;;;;;10.17;8.20;;;;;;;7.51;100.00;99852.00;5077337;28;20180;-63
2023/03/19 04:56:26;;;;;;;14.87;8.40;;;;;;;7.48;100.00;99854.69;5073586;28;20248;-63
2023/03/19 04:58:52;;;;;;;9.90;8.53;;;;;;;7.50;100.00;99852.06;5072561;28;20180;-63
2023/03/19 05:01:18;;;;;;;14.13;8.63;;;;;;;7.50;100.00;99854.63;5073567;28;20216;-63
2023/03/19 05:03:43;;;;;;;11.07;8.20;;;;;;;7.47;100.00;99859.88;5078944;28;20302;-62
2023/03/19 05:06:09;;;;;;;14.10;8.63;;;;;;;7.46;100.00;99855.69;5073610;28;20188;-62
2023/03/19 05:08:34;;;;;;;10.97;8.87;;;;;;;7.37;100.00;99859.47;5073256;28;20235;-65
2023/03/19 05:11:00;;;;;;;9.73;8.70;;;;;;;7.37;100.00;99855.19;5071010;28;20216;-64
2023/03/19 05:13:25;;;;;;;17.90;9.60;;;;;;;7.37;100.00;99860.28;5081181;28;20192;-63
2023/03/19 05:15:52;;;;;;;10.87;8.23;;;;;;;7.45;100.00;99856.56;5073609;28;20193;-64
2023/03/19 05:18:18;;;;;;;11.63;8.77;;;;;;;7.39;100.00;99862.78;5072109;28;20618;-63
2023/03/19 05:20:44;;;;;;;11.47;8.87;;;;;;;7.35;100.00;99868.94;5068419;28;20338;-63
2023/03/19 05:23:09;;;;;;;10.67;7.80;;;;;;;7.27;100.00;99869.28;5068997;28;20177;-65
2023/03/19 05:25:35;;;;;;;10.47;8.27;;;;;;;7.15;100.00;99875.78;5060987;28;20197;-64
2023/03/19 05:28:00;;;;;;;11.03;8.90;;;;;;;7.09;100.00;99876.03;5073320;28;20264;-63
2023/03/19 05:30:26;;;;;;;8.87;7.87;;;;;;;7.06;100.00;99868.50;5065950;28;20279;-63
2023/03/19 05:32:52;;;;;;;9.90;8.60;;;;;;;6.99;100.00;99867.13;5085143;28;20196;-62
2023/03/19 05:35:18;;;;;;;11.40;8.90;;;;;;;7.05;100.00;99877.91;5060661;28;20192;-62
2023/03/19 05:37:44;;;;;;;10.57;7.93;;;;;;;7.18;100.00;99883.31;5071728;28;20702;-64
2023/03/19 05:40:11;;;;;;;8.30;7.47;;;;;;;7.30;100.00;99883.69;5062359;28;20918;-62
2023/03/19 05:42:36;;;;;;;10.23;8.03;;;;;;;7.34;100.00;99886.00;5057620;28;20193;-62
2023/03/19 05:45:03;;;;;;;9.37;8.30;;;;;;;7.37;100.00;99888.44;5072952;28;20180;-67
2023/03/19 05:47:28;;;;;;;14.50;7.93;;;;;;;7.46;100.00;99889.75;5071293;28;20272;-62
2023/03/19 05:49:54;;;;;;;8.23;7.43;;;;;;;7.49;100.00;99889.63;5072640;28;20923;-63
2023/03/19 05:52:20;;;;;;;10.00;8.00;;;;;;;7.52;100.00;99894.59;5077634;28;20236;-62
2023/03/19 05:54:48;;;;;;;8.73;6.80;;;;;;;7.56;100.00;99890.19;5072626;28;20196;-67
2023/03/19 05:57:14;;;;;;;9.07;7.37;;;;;;;7.43;100.00;99893.28;5073096;28;20604;-62
2023/03/19 05:59:40;;;;;;;10.43;7.57;;;;;;;7.52;100.00;99904.03;5070703;28;20184;-66
2023/03/19 06:02:06;;;;;;;12.93;7.87;;;;;;;7.62;100.00;99902.69;5072773;28;20251;-64
2023/03/19 06:04:31;;;;;;;14.97;7.63;;;;;;;7.75;100.00;99897.84;5055105;28;20363;-63
2023/03/19 06:06:56;;;;;;;9.60;7.00;;;;;;;7.67;100.00;99907.63;5072343;28;20191;-63
2023/03/19 06:09:22;;;;;;;12.53;7.70;;;;;;;7.73;100.00;99897.91;5072085;28;20239;-63
2023/03/19 06:11:47;;;;;;;9.87;7.20;;;;;;;7.90;100.00;99909.09;5076019;28;20215;-63
2023/03/19 06:14:12;;;;;;;8.97;6.80;;;;;;;8.03;100.00;99911.94;5070254;28;20173;-63
2023/03/19 06:16:38;;;;;;;9.73;6.93;;;;;;;8.14;100.00;99908.88;5072222;28;20192;-63
2023/03/19 06:19:03;;;;;;;10.13;7.10;;;;;;;8.07;100.00;99910.88;5072060;28;20184;-63
2023/03/19 06:21:29;;;;;;;11.17;7.80;;;;;;;7.89;100.00;99904.91;5073386;28;20215;-63
2023/03/19 06:23:57;;;;;;;9.00;6.00;;;;;;;7.83;100.00;99906.00;5062570;28;20181;-63
2023/03/19 06:26:23;;;;;;;9.23;5.87;;;;;;;7.85;100.00;99908.50;5072044;28;20271;-63
2023/03/19 06:28:49;;;;;;;9.07;5.97;;;;;;;7.88;100.00;99911.75;5070779;28;20176;-62
2023/03/19 06:31:14;;;;;;;10.23;6.90;;;;;;;8.11;100.00;99907.25;5065453;28;20239;-62
2023/03/19 06:33:40;;;;;;;10.23;6.07;;;;;;;8.23;100.00;99913.53;5070229;28;20704;-64
2023/03/19 06:36:06;;;;;;;8.43;5.70;;;;;;;8.36;100.00;99918.91;5071963;28;20606;-63
2023/03/19 06:38:31;;;;;;;8.80;5.93;;;;;;;8.49;100.00;99911.50;5071982;28;20192;-62
2023/03/19 06:40:56;;;;;;;11.07;6.33;;;;;;;8.68;100.00;99912.25;5068139;28;20287;-62
2023/03/19 06:43:22;;;;;;;9.17;5.97;;;;;;;8.90;100.00;99915.47;5067216;28;20293;-62
2023/03/19 06:45:47;;;;;;;7.83;6.13;;;;;;;9.15;100.00;99917.59;5060341;28;20173;-63
2023/03/19 06:48:13;;;;;;;10.80;6.00;;;;;;;9.26;100.00;99905.03;5067163;28;20222;-62
2023/03/19 06:50:38;;;;;;;9.87;5.77;;;;;;;9.33;100.00;99913.28;5066251;28;20231;-62
2023/03/19 06:53:04;;;;;;;7.63;5.47;;;;;;;9.11;100.00;99916.94;5081846;28;20193;-62
2023/03/19 06:55:29;;;;;;;10.53;5.63;;;;;;;9.03;100.00;99927.59;5071745;28;20709;-62
2023/03/19 06:57:55;;;;;;;7.53;5.10;;;;;;;9.37;100.00;99932.72;5071771;28;20169;-63
2023/03/19 07:00:21;;;;;;;8.27;4.83;;;;;;;9.53;100.00;99922.50;5062437;28;20187;-62
2023/03/19 07:02:46;;;;;;;7.57;5.10;;;;;;;9.87;100.00;99925.78;5084203;28;20207;-62
2023/03/19 07:05:12;;;;;;;7.83;5.87;;;;;;;10.07;100.00;99927.31;5071490;28;20503;-62
2023/03/19 07:07:37;;;;;;;6.47;4.87;;;;;;;10.17;100.00;99928.44;5071586;28;20235;-62
2023/03/19 07:10:03;;;;;;;7.57;5.33;;;;;;;10.16;100.00;99931.91;5065742;28;20209;-61
2023/03/19 07:12:28;;;;;;;9.00;5.70;;;;;;;10.12;100.00;99937.31;5068789;28;20250;-61
2023/03/19 07:14:55;;;;;;;6.77;5.53;;;;;;;10.12;100.00;99933.00;5072163;28;20571;-62
2023/03/19 07:17:21;;;;;;;10.37;5.33;;;;;;;9.98;100.00;99944.03;5069963;28;20225;-64
2023/03/19 07:19:46;;;;;;;6.90;5.53;;;;;;;10.04;100.00;99940.31;5069957;28;20278;-62
2023/03/19 07:22:12;;;;;;;11.00;5.67;;;;;;;10.06;100.00;99938.50;5076313;28;20643;-63
2023/03/19 07:24:37;;;;;;;6.23;5.37;;;;;;;9.95;100.00;99944.22;5070664;28;20634;-62
2023/03/19 07:27:02;;;;;;;6.27;5.47;;;;;;;9.96;100.00;99952.72;5069778;28;20230;-62
2023/03/19 07:29:28;;;;;;;6.07;5.47;;;;;;;10.22;100.00;99947.91;5071475;28;20177;-63
2023/03/19 07:31:53;;;;;;;8.23;5.30;;;;;;;10.39;100.00;99950.38;5062194;28;20585;-75
2023/03/19 07:34:18;;;;;;;6.37;5.23;;;;;;;10.69;100.00;99951.31;5064294;28;20187;-63
2023/03/19 07:36:43;;;;;;;6.87;5.07;;;;;;;10.83;100.00;99946.22;5070865;28;20224;-63
2023/03/19 07:39:09;;;;;;;6.27;5.33;;;;;;;11.01;100.00;99949.44;5070687;28;20199;-64
2023/03/19 07:41:34;;;;;;;5.67;4.93;;;;;;;11.01;100.00;99954.59;5067167;28;20220;-63
2023/03/19 07:43:59;;;;;;;6.17;5.33;;;;;;;11.11;100.00;99950.56;5045003;28;20189;-63
2023/03/19 07:46:25;;;;;;;10.47;5.47;;;;;;;11.11;100.00;99945.44;5050979;28;20191;-64
2023/03/19 07:48:50;;;;;;;7.77;5.23;;;;;;;11.17;100.00;99954.50;5070815;28;20187;-65
2023/03/19 07:51:15;;;;;;;5.97;5.13;;;;;;;11.20;100.00;99954.34;5070114;28;20650;-64
2023/03/19 07:53:41;;;;;;;5.97;5.03;;;;;;;11.23;100.00;99961.88;5068732;28;20552;-64
2023/03/19 07:56:06;;;;;;;7.80;4.97;;;;;;;11.37;100.00;99960.22;5069363;28;20242;-63
2023/03/19 07:58:31;;;;;;;8.73;5.77;;;;;;;11.32;100.00;99962.25;5069750;28;20197;-64
2023/03/19 08:00:57;;;;;;;8.30;5.77;;;;;;;11.47;100.00;99969.03;5049541;28;20221;-64
2023/03/19 08:03:22;;;;;;;8.53;6.07;;;;;;;11.42;100.00;99966.78;5069736;28;20184;-64
2023/03/19 08:05:48;;;;;;;7.40;6.27;;;;;;;11.61;100.00;99963.91;5071020;28;20173;-63
2023/03/19 08:08:14;;;;;;;7.23;5.60;;;;;;;11.15;100.00;99969.25;5070720;28;20269;-63
2023/03/19 08:10:39;;;;;;;7.13;5.90;;;;;;;11.23;100.00;99972.16;5062010;28;20277;-62
2023/03/19 08:13:04;;;;;;;7.33;5.70;;;;;;;11.40;100.00;99971.19;5081432;28;20188;-62
2023/03/19 08:15:30;;;;;;;7.83;5.60;;;;;;;11.69;100.00;99976.31;5063787;28;20251;-65
2023/03/19 08:18:00;;;;;;;12.27;5.93;;;;;;;12.30;100.00;99970.84;5063062;28;20178;-64
2023/03/19 08:20:25;;;;;;;8.20;6.00;;;;;;;12.87;100.00;99961.16;5060529;28;20236;-65
2023/03/19 08:22:50;;;;;;;8.43;6.17;;;;;;;12.67;100.00;99975.38;5072910;28;20187;-65
2023/03/19 08:25:16;;;;;;;9.07;5.80;;;;;;;12.94;100.00;99972.75;5072921;28;20212;-65
2023/03/19 08:27:42;;;;;;;7.13;5.17;;;;;;;12.85;100.00;99963.84;5074516;28;20262;-63
2023/03/19 08:30:10;;;;;;;9.07;5.37;;;;;;;12.68;100.00;99972.69;5044094;28;20177;-64
2023/03/19 08:32:36;;;;;;;7.10;5.60;;;;;;;13.01;100.00;99968.84;5071684;28;20275;-64
2023/03/19 08:35:02;;;;;;;6.80;5.27;;;;;;;13.59;100.00;99970.16;5074166;28;20299;-64
2023/03/19 08:37:27;;;;;;;6.53;5.50;;;;;;;13.91;100.00;99965.31;5073185;28;20172;-64
2023/03/19 08:39:52;;;;;;;8.10;6.03;;;;;;;14.25;100.00;99970.69;5074211;28;20173;-64
2023/03/19 08:42:19;;;;;;;6.40;5.30;;;;;;;14.18;100.00;99969.47;5066802;28;20555;-64
2023/03/19 08:44:45;;;;;;;6.70;4.90;;;;;;;14.10;100.00;99966.59;5070942;28;20183;-65
2023/03/19 08:47:11;;;;;;;8.17;4.40;;;;;;;14.67;100.00;99962.50;5074392;28;20180;-64
2023/03/19 08:49:36;;;;;;;7.70;5.27;;;;;;;15.35;100.00;99961.78;5073812;28;20191;-64
2023/03/19 08:52:02;;;;;;;8.17;4.97;;;;;;;15.67;98.91;99964.47;5078756;28;20251;-63
2023/03/19 08:54:27;;;;;;;7.63;4.90;;;;;;;15.92;95.36;99960.78;5073475;28;20584;-64
2023/03/19 08:56:52;;;;;;;7.97;4.50;;;;;;;16.35;93.74;99959.13;5074017;28;20191;-63
2023/03/19 08:59:17;;;;;;;6.47;4.87;;;;;;;16.67;90.68;99962.63;5074088;28;20189;-62
2023/03/19 09:01:43;;;;;;;8.10;4.80;;;;;;;16.89;86.48;99972.91;5065737;28;20238;-63
2023/03/19 09:04:08;;;;;;;8.00;4.53;;;;;;;17.00;86.42;99982.41;5075879;28;20173;-63
2023/03/19 09:06:33;;;;;;;7.67;4.90;;;;;;;16.99;85.70;99972.16;5073703;28;20518;-64
2023/03/19 09:08:59;;;;;;;10.57;3.97;;;;;;;16.62;83.38;99971.63;5073653;28;20227;-63
2023/03/19 09:11:24;;;;;;;7.70;4.50;;;;;;;16.74;84.93;99974.16;5074355;28;20764;-63
2023/03/19 09:13:49;;;;;;;9.20;4.40;;;;;;;17.02;85.10;99979.69;5077798;28;20173;-63
2023/03/19 09:16:15;;;;;;;5.50;3.97;;;;;;;18.81;74.92;99971.94;5073442;28;20219;-66
2023/03/19 09:18:41;;;;;;;7.57;4.37;;;;;;;19.50;62.53;99974.38;5073114;28;20644;-65
2023/03/19 09:21:06;;;;;;;8.70;4.17;;;;;;;19.58;62.34;99984.06;5071488;28;20223;-65
2023/03/19 09:23:32;;;;;;;6.07;4.27;;;;;;;19.02;64.40;99992.63;5069944;28;20201;-64
2023/03/19 09:25:57;;;;;;;6.87;4.60;;;;;;;18.76;67.51;99988.97;5058522;28;20184;-63
2023/03/19 09:28:23;;;;;;;5.97;4.10;;;;;;;17.37;75.21;99994.91;5073165;28;20180;-63
2023/03/19 09:30:50;;;;;;;6.17;4.60;;;;;;;16.77;86.33;99992.91;5068765;28;20258;-63
2023/03/19 09:33:16;;;;;;;6.00;4.00;;;;;;;16.80;86.93;99994.44;5070885;28;20201;-65
2023/03/19 09:35:42;;;;;;;4.90;3.80;;;;;;;17.29;84.98;99993.91;5071376;28;20239;-63
2023/03/19 09:38:07;;;;;;;6.47;4.17;;;;;;;17.90;81.10;100000.84;5073285;28;20297;-63
2023/03/19 09:40:40;;;;;;;7.00;3.87;;;;;;;18.07;79.89;99996.75;5066553;28;20631;-64
2023/03/19 09:43:37;;;;;;;4.30;3.70;;;;;;;18.02;75.77;99993.75;5057761;28;20187;-63
2023/03/19 09:46:14;;;;;;;7.07;3.90;;;;;;;17.32;78.74;100001.47;5073032;28;20188;-64
2023/03/19 09:48:48;;;;;;;5.87;4.10;;;;;;;17.09;83.88;100002.44;5071588;28;20195;-62
2023/03/19 09:51:20;;;;;;;5.53;3.70;;;;;;;17.38;84.46;99996.56;5059613;28;20295;-63
2023/03/19 09:53:59;;;;;;;7.23;3.50;;;;;;;17.19;80.86;100005.09;5063734;28;20184;-63
2023/03/19 09:56:25;;;;;;;5.03;4.10;;;;;;;17.17;80.08;100003.56;5059111;28;20201;-64
2023/03/19 09:58:51;;;;;;;9.07;4.20;;;;;;;17.42;83.59;100002.31;5071320;28;20272;-64
2023/03/19 10:01:27;;;;;;;5.20;3.80;;;;;;;17.33;81.01;99996.13;5072348;28;20235;-64
2023/03/19 10:04:07;;;;;;;5.37;3.33;;;;;;;17.06;81.62;99999.28;5070588;28;20274;-63
2023/03/19 10:06:35;;;;;;;5.63;3.80;;;;;;;16.32;86.16;99995.69;5072583;28;20184;-63
2023/03/19 10:09:21;;;;;;;5.77;3.30;;;;;;;15.91;89.05;99990.25;5072297;28;20232;-64
2023/03/19 10:12:05;;;;;;;4.60;3.63;;;;;;;16.41;87.03;99994.13;5075773;28;20235;-63
2023/03/19 10:14:55;;;;;;;7.77;3.70;;;;;;;16.20;86.39;99996.69;5064127;28;20179;-64
2023/03/19 10:17:27;;;;;;;5.43;3.60;;;;;;;15.73;89.73;100000.28;5070350;28;20184;-65
2023/03/19 10:20:01;;;;;;;4.73;3.83;;;;;;;15.46;94.47;99996.28;5070905;28;20180;-63
2023/03/19 10:22:35;;;;;;;8.10;4.30;;;;;;;14.80;98.53;100002.09;5051761;28;20270;-64
2023/03/19 10:25:01;;;;;;;6.13;4.10;;;;;;;14.29;100.00;100007.47;5066951;28;20199;-64
2023/03/19 10:27:28;;;;;;;8.93;4.67;;;;;;;14.03;100.00;100003.25;5070660;28;20616;-63
2023/03/19 10:29:54;;;;;;;7.17;4.50;;;;;;;13.74;100.00;100010.44;5072159;28;20200;-63
2023/03/19 10:32:33;;;;;;;8.50;4.87;;;;;;;13.68;100.00;100014.28;5060863;28;20721;-62
2023/03/19 10:35:03;;;;;;;7.87;4.43;;;;;;;13.66;100.00;100010.16;5071814;28;20227;-63
2023/03/19 10:37:29;;;;;;;6.53;4.60;;;;;;;13.59;100.00;100014.09;5070536;28;20176;-63
2023/03/19 10:39:57;;;;;;;7.77;4.43;;;;;;;13.97;100.00;100014.00;5071933;28;20603;-64
2023/03/19 10:42:45;;;;;;;7.17;4.60;;;;;;;14.55;100.00;100017.72;5047910;28;20593;-65
2023/03/19 10:45:24;;;;;;;6.00;4.37;;;;;;;14.91;100.00;100016.00;5058946;28;20632;-65
2023/03/19 10:47:51;;;;;;;7.83;4.20;;;;;;;14.79;100.00;100015.16;5070346;28;20164;-64
2023/03/19 10:50:20;;;;;;;5.77;4.00;;;;;;;14.93;100.00;100019.31;5062169;28;20206;-63
2023/03/19 10:52:51;;;;;;;7.33;4.10;;;;;;;15.51;100.00;100013.28;5069698;28;20177;-63
2023/03/19 10:55:24;;;;;;;8.60;4.03;;;;;;;15.20;100.00;100026.78;5070342;28;20566;-64
2023/03/19 10:58:00;;;;;;;5.97;3.93;;;;;;;15.65;100.00;100025.97;5070128;28;20173;-62
2023/03/19 11:00:31;;;;;;;5.13;3.77;;;;;;;16.10;100.00;100030.31;5063777;28;21462;-65
2023/03/19 11:02:57;;;;;;;7.83;4.30;;;;;;;16.44;99.75;100019.84;5070091;28;20173;-64
2023/03/19 11:05:26;;;;;;;6.17;4.20;;;;;;;16.62;100.00;100025.31;5070120;28;20184;-63
2023/03/19 11:08:04;;;;;;;6.90;3.73;;;;;;;16.51;95.31;100021.00;5071244;28;20216;-62
2023/03/19 11:10:33;;;;;;;6.83;4.00;;;;;;;16.44;96.99;100028.44;5062390;28;20223;-63
2023/03/19 11:13:03;;;;;;;6.23;4.60;;;;;;;16.73;98.76;100022.69;5069344;28;20177;-64
2023/03/19 11:15:37;;;;;;;4.87;3.93;;;;;;;17.00;99.10;100020.56;5069573;28;20641;-63
2023/03/19 11:18:27;;;;;;;5.20;4.20;;;;;;;16.64;97.37;100010.44;5071676;28;20656;-63
2023/03/19 11:21:05;;;;;;;6.97;3.93;;;;;;;16.34;98.06;100018.94;5056901;28;20554;-62
2023/03/19 11:23:38;;;;;;;7.13;4.10;;;;;;;16.39;100.00;100017.63;5068734;28;20191;-64
2023/03/19 11:26:04;;;;;;;6.87;3.83;;;;;;;16.62;100.00;100014.94;5071576;28;20181;-63